Bartonsville, PA (18321)

2:06 PM EDT on September 20, 2014 (GMT -0400)
Pocono Laurel Lake | Change Station
CLOSE
Current Station
Personal Weather Station
Location: Bartonsville, PA
Elevation: 899 ft
Nearby Weather Stations

Elev 899 ft 41.02 °N, 75.28 °W | Updated 3 minutes ago

Overcast
Overcast
73.2 °F
Feels Like 75 °F
N
2.7
Wind Variable Wind from ESE

Today
High -- | Low -- °F
--% Chance of Precip.
Yesterday
High -- | Low -- °F
Precip. -- in
6:46 AM 7:01 PM
Waning Crescent, 11% visible
Pressure 30.20 in
Visibility 10.0 miles
Clouds Mostly Cloudy 2000 ft
Overcast 2700 ft
Heat Index 75 °F
Dew Point 64 °F
Humidity 73%
Rainfall 0.00 in
Snow Depth Not available.
UV 2 out of 12
Pollen 2.90 out of 12
Air Quality Not available.
Flu Activity Not available.
METAR KMPO 201753Z AUTO 20012G20KT 10SM BKN020 OVC027 19/13 A3020 RMK AO2 SLP225 T01940133 10194 20128 58025 TSNO $

More Conditions Fewer Conditions

Pressure 30.20 in
Visibility 10.0 miles
Clouds Mostly Cloudy 2000 ft
Overcast 2700 ft
Heat Index 75 °F
Dew Point 64 °F
Humidity 73%
Rainfall 0.00 in
Snow Depth Not available.
UV 2 out of 12
Pollen 2.90 out of 12
Air Quality Not available.
Flu Activity Not available.
METAR KMPO 201753Z AUTO 20012G20KT 10SM BKN020 OVC027 19/13 A3020 RMK AO2 SLP225 T01940133 10194 20128 58025 TSNO $

More Conditions Fewer Conditions

10-Day Weather Forecast

Almanac

Astronomy

Sep. 20, 2014 Rise Set
Actual Time 6:46 AM EDT 7:01 PM EDT
Civil Twilight 6:19 AM EDT 7:29 PM EDT
Nautical Twilight 5:46 AM EDT 8:01 PM EDT
Astronomical Twilight 5:13 AM EDT 8:34 PM EDT
Moon 3:22 AM EDT 5:05 PM EDT
Length of Visible Light 13h 10m
Length of Day
12h 15m
Tomorrow will be 2m 42s shorter.
Waning Crescent, 11% of the Moon is Illuminated
Today
Waning Crescent
Sep 24
New
Oct 1
First Quarter
Oct 8
Full
Oct 15
Last Quarter

Today's Extremes

State Highs State Lows

Community

WunderPhotos

Upload Photos

1,754,921 photos uploaded!

WunderBlogs® & News

Nearby

Snow Depth

Station Depth Elevation
No new snow has been reported.

Earthquake Activity

City Distance Mag. Time & Date
No recent earthquake activity has been reported nearby.
Minimum magnitude displayed is 2.5.

Coastal Water Temperatures

Place Temperature
No Stations Reporting

Nearby Weather Stations